Time;durP1;ratioP1;P1;durP2;ratioP2;P2;SDS_P1;SDS_P2;PMS_P1;PMS_P2;Temp;Humidity;BMP_temperature;BMP_pressure;BME280_temperature;BME280_humidity;BME280_pressure;Samples;Min_cycle;Max_cycle;Signal;HPM_P1;HPM_P2
2022/11/08 05:47:32;;;;;;;6.97;1.83;;;17.00;76.50;;;;;;4818072;23;20105;-71
2022/11/08 05:49:57;;;;;;;7.30;2.70;;;16.90;75.90;;;;;;4790789;29;20116;-72
2022/11/08 05:52:23;;;;;;;5.78;1.88;;;16.90;75.00;;;;;;4807852;29;20054;-72
2022/11/08 05:55:00;;;;;;;9.10;1.55;;;16.80;74.20;;;;;;4807452;29;20089;-76
2022/11/08 05:57:44;;;;;;;14.20;2.10;;;16.80;73.80;;;;;;4791413;29;20058;-77
2022/11/08 06:00:35;;;;;;;9.45;1.77;;;16.70;73.00;;;;;;4776889;29;20043;-76
2022/11/08 06:03:16;;;;;;;9.10;1.73;;;16.60;74.00;;;;;;4806637;29;20374;-75
2022/11/08 06:05:41;;;;;;;26.60;2.70;;;16.60;74.70;;;;;;4791894;29;20099;-78
2022/11/08 06:08:22;;;;;;;19.70;2.95;;;16.60;75.00;;;;;;4807180;29;20046;-76
2022/11/08 06:10:50;;;;;;;15.70;3.03;;;16.70;75.20;;;;;;4807070;29;20065;-75
2022/11/08 06:14:08;;;;;;;27.48;3.15;;;16.70;75.50;;;;;;4806327;29;20430;-76
2022/11/08 06:24:31;;;;;;;17.50;2.20;;;16.80;76.60;;;;;;4767331;29;20152;-73
2022/11/08 06:27:00;;;;;;;16.40;2.97;;;16.70;76.60;;;;;;4793657;29;20074;-74
2022/11/08 06:29:28;;;;;;;14.82;2.30;;;16.70;76.80;;;;;;4809995;29;20057;-76
2022/11/08 06:31:54;;;;;;;14.15;2.17;;;16.70;76.80;;;;;;4795167;29;20122;-75
2022/11/08 06:34:21;;;;;;;15.35;2.25;;;16.70;76.80;;;;;;4810215;29;20123;-75
2022/11/08 06:36:48;;;;;;;21.02;2.88;;;16.70;77.00;;;;;;4809762;29;20361;-72
2022/11/08 06:39:13;;;;;;;12.70;2.22;;;16.70;77.20;;;;;;4810185;29;20058;-71
2022/11/08 06:41:39;;;;;;;15.52;2.72;;;16.80;77.20;;;;;;4810269;29;20094;-76
2022/11/08 06:44:05;;;;;;;18.40;1.80;;;16.80;77.00;;;;;;4810164;29;20134;-75
2022/11/08 06:46:30;;;;;;;15.23;2.03;;;16.80;76.90;;;;;;4793995;29;20461;-76
2022/11/08 06:48:56;;;;;;;13.10;2.58;;;16.80;76.90;;;;;;4809523;29;20058;-75
2022/11/08 06:51:22;;;;;;;14.63;2.20;;;16.70;76.80;;;;;;4809861;29;20090;-75
2022/11/08 06:53:47;;;;;;;18.42;2.15;;;16.60;76.70;;;;;;4810045;29;20115;-76
2022/11/08 06:56:13;;;;;;;16.00;2.75;;;16.60;77.30;;;;;;4809453;29;20047;-77
2022/11/08 06:58:39;;;;;;;19.80;2.33;;;16.60;77.60;;;;;;4793037;29;20077;-75
2022/11/08 07:01:07;;;;;;;25.48;2.67;;;16.60;77.80;;;;;;4791148;30;20130;-74
2022/11/08 07:03:33;;;;;;;15.98;1.92;;;16.60;78.00;;;;;;4796752;29;20133;-76
2022/11/08 07:06:04;;;;;;;21.65;3.15;;;16.60;78.20;;;;;;4808727;29;20133;-75
2022/11/08 07:08:33;;;;;;;27.73;3.53;;;16.60;78.40;;;;;;4810044;29;20054;-76
2022/11/08 07:10:59;;;;;;;21.10;3.05;;;16.60;78.60;;;;;;4809953;29;20470;-71
2022/11/08 07:14:07;;;;;;;16.35;2.10;;;16.60;79.10;;;;;;4809946;29;20059;-75
2022/11/08 07:17:34;;;;;;;19.27;2.88;;;16.60;77.90;;;;;;4759380;29;20067;-75
2022/11/08 07:24:58;;;;;;;14.43;1.98;;;16.60;77.50;;;;;;4771727;29;20353;-75
2022/11/08 07:27:44;;;;;;;7.97;1.38;;;16.50;77.40;;;;;;4723906;30;20088;-73
2022/11/08 07:30:10;;;;;;;7.90;1.40;;;16.50;77.50;;;;;;4787050;30;20126;-73
2022/11/08 07:32:36;;;;;;;8.93;1.88;;;16.50;77.50;;;;;;4786361;29;20546;-71
2022/11/08 07:35:02;;;;;;;7.82;2.17;;;16.50;77.50;;;;;;4792868;29;20062;-73
2022/11/08 07:37:28;;;;;;;14.27;1.98;;;16.50;77.50;;;;;;4809986;29;20115;-73
2022/11/08 07:39:53;;;;;;;6.18;1.63;;;16.50;77.20;;;;;;4809398;29;20129;-74
2022/11/08 07:42:19;;;;;;;6.22;1.42;;;16.50;76.90;;;;;;4810041;29;20063;-73
2022/11/08 07:44:45;;;;;;;6.20;1.63;;;16.50;76.70;;;;;;4809637;29;20047;-70
2022/11/08 07:47:10;;;;;;;8.98;1.85;;;16.50;76.50;;;;;;4792245;29;20071;-76
2022/11/08 07:49:36;;;;;;;7.85;1.48;;;16.50;76.30;;;;;;4792462;29;20054;-76
2022/11/08 07:52:02;;;;;;;6.35;1.23;;;16.50;76.20;;;;;;4823310;29;20119;-75
2022/11/08 07:54:28;;;;;;;10.95;2.20;;;16.50;76.20;;;;;;4807936;29;20069;-76
2022/11/08 07:56:53;;;;;;;5.82;1.67;;;16.50;76.10;;;;;;4793887;29;20085;-75
2022/11/08 07:59:19;;;;;;;4.50;1.50;;;16.40;76.10;;;;;;4823312;29;20462;-76
2022/11/08 08:01:45;;;;;;;5.20;2.00;;;16.50;76.20;;;;;;4808591;29;20457;-76
2022/11/08 08:04:11;;;;;;;8.45;1.40;;;16.40;76.20;;;;;;4808797;29;20051;-78
2022/11/08 08:06:37;;;;;;;7.53;1.75;;;16.40;76.30;;;;;;4807922;29;20154;-78
2022/11/08 08:09:03;;;;;;;4.93;1.42;;;16.40;76.40;;;;;;4808844;29;20104;-78
2022/11/08 08:11:29;;;;;;;4.35;0.95;;;16.40;76.40;;;;;;4808588;29;20042;-75
2022/11/08 08:13:55;;;;;;;7.05;1.10;;;16.40;76.60;;;;;;4807192;29;20062;-75
2022/11/08 08:16:21;;;;;;;6.88;1.08;;;16.40;76.70;;;;;;4807995;29;20582;-75
2022/11/08 08:18:50;;;;;;;6.72;1.20;;;16.40;76.70;;;;;;4806857;29;20078;-74
2022/11/08 08:21:16;;;;;;;10.70;1.40;;;16.40;76.80;;;;;;4808272;29;20435;-73
2022/11/08 08:23:42;;;;;;;8.60;1.33;;;16.30;76.80;;;;;;4808613;29;20047;-74
2022/11/08 08:26:08;;;;;;;5.72;1.50;;;16.40;77.00;;;;;;4792675;29;20344;-75
2022/11/08 08:28:34;;;;;;;9.07;1.15;;;16.40;77.00;;;;;;4792537;29;20134;-75
2022/11/08 08:31:00;;;;;;;11.02;1.30;;;16.40;77.10;;;;;;4807734;29;20471;-73
2022/11/08 08:33:26;;;;;;;5.68;1.42;;;16.40;77.20;;;;;;4791822;29;20061;-75
2022/11/08 08:35:52;;;;;;;4.63;1.30;;;16.40;77.20;;;;;;4808885;29;20046;-72
2022/11/08 08:38:18;;;;;;;7.80;1.52;;;16.40;77.00;;;;;;4807845;29;20055;-72
2022/11/08 08:40:44;;;;;;;14.23;1.75;;;16.40;76.70;;;;;;4822611;29;20053;-73
2022/11/08 08:43:10;;;;;;;6.22;1.63;;;16.40;76.60;;;;;;4792260;29;20046;-72
2022/11/08 08:45:35;;;;;;;6.70;1.63;;;16.50;76.40;;;;;;4792262;29;20391;-74
2022/11/08 08:48:02;;;;;;;12.57;1.83;;;16.40;76.10;;;;;;4807186;29;20102;-73
2022/11/08 08:50:29;;;;;;;11.20;1.60;;;16.40;76.00;;;;;;4807887;29;20050;-72
2022/11/08 08:53:00;;;;;;;7.03;1.30;;;16.40;76.00;;;;;;4792714;29;20055;-71
2022/11/08 08:55:26;;;;;;;7.43;1.60;;;16.30;76.00;;;;;;4792628;29;20130;-71
2022/11/08 08:57:52;;;;;;;9.18;1.75;;;16.40;76.00;;;;;;4807342;29;20412;-72
2022/11/08 09:00:18;;;;;;;6.70;1.40;;;16.40;75.80;;;;;;4808032;29;20188;-74
2022/11/08 09:02:44;;;;;;;9.40;1.70;;;16.40;75.60;;;;;;4792100;29;20062;-75
2022/11/08 09:05:12;;;;;;;14.15;1.88;;;16.40;75.50;;;;;;4807800;29;20099;-74
2022/11/08 09:07:38;;;;;;;5.45;1.05;;;16.40;75.50;;;;;;4807677;29;20164;-75
2022/11/08 09:10:05;;;;;;;8.13;1.50;;;16.40;76.10;;;;;;4806792;29;20112;-75
2022/11/08 09:12:31;;;;;;;9.05;1.98;;;16.40;75.60;;;;;;4822232;29;20050;-73
2022/11/08 09:14:57;;;;;;;3.80;1.00;;;16.40;75.70;;;;;;4807547;29;20042;-73
2022/11/08 09:17:23;;;;;;;9.00;1.65;;;16.30;75.10;;;;;;4791948;29;20054;-72
2022/11/08 09:19:48;;;;;;;8.00;1.33;;;16.30;75.50;;;;;;4807849;29;20475;-72
2022/11/08 09:22:14;;;;;;;5.50;1.10;;;16.20;75.60;;;;;;4807183;29;20070;-74
2022/11/08 09:24:40;;;;;;;7.30;1.20;;;16.20;75.80;;;;;;4806990;29;20050;-73
2022/11/08 09:27:06;;;;;;;5.95;1.10;;;16.20;75.90;;;;;;4808019;29;20463;-75
2022/11/08 09:29:32;;;;;;;4.43;1.30;;;16.20;75.80;;;;;;4807479;29;20131;-76
2022/11/08 09:32:01;;;;;;;8.25;1.45;;;16.20;76.00;;;;;;4807618;29;20458;-73
2022/11/08 09:34:27;;;;;;;5.00;1.30;;;16.20;76.20;;;;;;4807411;29;20046;-71
2022/11/08 09:36:53;;;;;;;12.70;2.00;;;16.30;76.30;;;;;;4807418;29;20334;-72
2022/11/08 09:39:19;;;;;;;10.65;1.45;;;16.30;76.20;;;;;;4820996;29;20051;-74
2022/11/08 09:41:57;;;;;;;8.68;2.42;;;16.30;76.10;;;;;;4806533;29;20485;-77
2022/11/08 09:44:51;;;;;;;6.57;1.70;;;16.30;75.90;;;;;;4807780;29;20065;-75
2022/11/08 09:47:24;;;;;;;8.85;1.40;;;16.30;75.70;;;;;;4812634;29;20139;-70
2022/11/08 09:50:05;;;;;;;10.07;1.93;;;16.30;75.70;;;;;;4825861;29;20058;-76
2022/11/08 09:52:32;;;;;;;5.25;1.50;;;16.40;75.60;;;;;;4809598;29;20082;-75
2022/11/08 09:55:38;;;;;;;10.15;1.90;;;16.30;75.80;;;;;;4826132;29;20062;-72
2022/11/08 09:58:20;;;;;;;8.98;1.27;;;16.30;76.60;;;;;;4824825;29;20370;-74
2022/11/08 10:00:49;;;;;;;6.43;1.80;;;16.30;77.00;;;;;;4794975;29;20458;-73
2022/11/08 10:03:17;;;;;;;7.97;1.92;;;16.40;77.50;;;;;;4794752;29;20054;-77
2022/11/08 10:06:08;;;;;;;14.48;2.10;;;16.40;77.60;;;;;;4811493;29;20046;-74
2022/11/08 10:08:59;;;;;;;11.25;1.92;;;16.40;78.40;;;;;;4791310;29;20070;-73
2022/11/08 10:11:31;;;;;;;12.98;1.75;;;16.40;78.30;;;;;;4810903;29;20080;-76
2022/11/08 10:14:05;;;;;;;7.72;1.48;;;16.30;77.70;;;;;;4810777;29;20143;-75
2022/11/08 10:16:43;;;;;;;16.13;1.23;;;16.30;76.90;;;;;;4809995;29;20061;-74
2022/11/08 10:19:20;;;;;;;10.18;1.10;;;16.30;76.90;;;;;;4803724;29;20479;-73
2022/11/08 10:21:58;;;;;;;7.40;1.42;;;16.20;76.40;;;;;;4795406;29;20173;-74
2022/11/08 10:24:34;;;;;;;6.43;1.30;;;16.10;76.70;;;;;;4810330;29;20090;-75
2022/11/08 10:27:02;;;;;;;6.60;1.17;;;16.00;76.80;;;;;;4824656;29;20054;-75
2022/11/08 10:29:37;;;;;;;8.25;1.55;;;16.00;77.20;;;;;;4810824;29;20055;-74
2022/11/08 10:32:21;;;;;;;6.95;1.17;;;15.90;77.10;;;;;;4825459;29;20059;-75
2022/11/08 10:35:03;;;;;;;6.40;1.17;;;15.90;77.20;;;;;;4810162;29;20126;-74
2022/11/08 10:37:31;;;;;;;8.50;1.15;;;15.90;77.50;;;;;;4810415;29;20084;-74
2022/11/08 10:40:04;;;;;;;6.57;0.80;;;15.90;77.60;;;;;;4810649;29;20397;-72
2022/11/08 10:42:45;;;;;;;5.95;1.02;;;15.90;77.50;;;;;;4810539;29;20066;-75
2022/11/08 10:45:11;;;;;;;4.78;1.50;;;15.90;77.40;;;;;;4808091;29;20518;-74
2022/11/08 10:47:39;;;;;;;11.20;1.60;;;15.90;77.60;;;;;;4808786;29;20137;-72
2022/11/08 10:50:20;;;;;;;7.65;1.27;;;15.90;77.60;;;;;;4823983;29;20441;-76
2022/11/08 10:52:57;;;;;;;6.57;1.27;;;15.90;77.60;;;;;;4809319;29;20390;-77
2022/11/08 10:55:37;;;;;;;5.90;1.08;;;15.90;77.50;;;;;;4810426;29;20055;-80
2022/11/08 10:58:23;;;;;;;6.15;1.20;;;16.00;77.50;;;;;;4810278;29;20043;-73
2022/11/08 11:01:19;;;;;;;7.00;1.20;;;16.00;77.50;;;;;;4810140;29;20069;-73
2022/11/08 11:03:46;;;;;;;8.93;1.13;;;16.00;77.40;;;;;;4810013;29;20059;-73
2022/11/08 11:06:29;;;;;;;6.38;1.50;;;16.00;77.30;;;;;;4808553;29;20459;-72
2022/11/08 11:09:02;;;;;;;7.93;1.55;;;16.10;77.20;;;;;;4809882;29;20111;-70
2022/11/08 11:11:30;;;;;;;8.32;1.60;;;16.10;76.70;;;;;;4809461;29;20137;-73
2022/11/08 11:14:17;;;;;;;7.72;1.52;;;16.10;76.60;;;;;;4809847;29;20090;-72
2022/11/08 11:16:59;;;;;;;7.95;1.42;;;16.10;76.40;;;;;;4810044;29;20092;-71
2022/11/08 11:19:26;;;;;;;4.25;1.00;;;16.10;76.20;;;;;;4824113;29;20062;-72
2022/11/08 11:22:03;;;;;;;6.22;1.40;;;16.10;76.20;;;;;;4808981;29;20058;-75
2022/11/08 11:24:30;;;;;;;6.80;1.25;;;16.10;76.20;;;;;;4809297;29;20066;-76
2022/11/08 11:26:55;;;;;;;7.22;1.75;;;16.10;76.30;;;;;;4793400;29;20446;-74
2022/11/08 11:29:44;;;;;;;5.88;1.83;;;16.10;76.20;;;;;;4809337;29;20054;-76
2022/11/08 11:32:34;;;;;;;5.63;1.38;;;16.10;75.40;;;;;;4809866;29;20377;-75
2022/11/08 11:35:03;;;;;;;2.80;1.10;;;16.10;75.30;;;;;;4793933;29;20535;-74
2022/11/08 11:37:31;;;;;;;2.35;1.20;;;16.10;75.20;;;;;;4808745;29;20054;-74
2022/11/08 11:40:02;;;;;;;4.18;1.27;;;16.20;75.20;;;;;;4809061;29;20047;-76
2022/11/08 11:42:40;;;;;;;3.28;1.35;;;16.20;75.20;;;;;;4809049;29;20086;-74
2022/11/08 11:45:31;;;;;;;4.50;1.20;;;16.20;75.20;;;;;;4809213;29;20062;-75
2022/11/08 11:48:01;;;;;;;5.30;1.48;;;16.20;74.60;;;;;;4823303;29;20348;-76
2022/11/08 11:50:36;;;;;;;5.60;1.38;;;16.20;75.50;;;;;;4822989;29;20062;-72
2022/11/08 11:53:11;;;;;;;4.57;1.20;;;16.20;74.50;;;;;;4809372;29;20074;-72
2022/11/08 11:55:52;;;;;;;3.88;1.33;;;16.20;73.50;;;;;;4822941;29;20061;-73
2022/11/08 11:58:26;;;;;;;3.88;1.30;;;16.30;72.50;;;;;;4809197;29;20062;-72
2022/11/08 12:01:09;;;;;;;4.10;1.45;;;16.30;71.90;;;;;;4791911;29;20051;-73
2022/11/08 12:04:00;;;;;;;3.80;1.15;;;16.20;71.10;;;;;;4808092;29;20489;-72
2022/11/08 12:06:52;;;;;;;3.38;1.35;;;16.20;70.80;;;;;;4808750;29;20348;-76
2022/11/08 12:09:32;;;;;;;6.30;1.30;;;16.10;71.10;;;;;;4788997;29;20105;-78
2022/11/08 12:12:19;;;;;;;2.85;1.15;;;16.10;71.80;;;;;;4808688;29;20086;-77
2022/11/08 12:15:19;;;;;;;5.13;1.27;;;16.10;72.20;;;;;;4808868;29;20047;-75
2022/11/08 12:18:23;;;;;;;2.38;1.13;;;16.10;72.50;;;;;;4789973;29;20066;-76
2022/11/08 12:20:59;;;;;;;5.60;1.38;;;16.10;72.80;;;;;;4808726;29;20051;-78
2022/11/08 12:23:48;;;;;;;2.42;1.20;;;16.10;73.00;;;;;;4808827;29;20050;-75
2022/11/08 12:26:52;;;;;;;4.53;1.10;;;16.10;73.10;;;;;;4808463;29;20055;-75
2022/11/08 12:29:22;;;;;;;4.40;1.10;;;16.10;73.30;;;;;;4811470;29;20069;-76
2022/11/08 12:32:08;;;;;;;5.57;1.30;;;16.10;73.50;;;;;;4807910;29;20112;-75
2022/11/08 12:34:51;;;;;;;12.85;1.23;;;16.10;73.40;;;;;;4807769;29;20059;-72
2022/11/08 12:37:32;;;;;;;6.25;1.05;;;16.10;73.60;;;;;;4803581;29;20395;-73
2022/11/08 12:40:13;;;;;;;5.57;1.00;;;16.10;73.60;;;;;;4808228;29;20108;-72
2022/11/08 12:42:50;;;;;;;6.68;1.10;;;16.10;73.70;;;;;;4809018;29;20054;-73
2022/11/08 12:45:30;;;;;;;6.95;1.05;;;16.20;74.00;;;;;;4792450;29;20098;-72
2022/11/08 12:48:02;;;;;;;7.82;1.55;;;16.20;74.20;;;;;;4808276;29;20063;-77
2022/11/08 12:51:05;;;;;;;3.25;0.70;;;16.20;74.50;;;;;;4807757;29;20066;-77
2022/11/08 12:53:47;;;;;;;2.90;1.13;;;16.20;74.60;;;;;;4791499;29;20055;-72
2022/11/08 12:56:28;;;;;;;4.68;1.30;;;16.30;75.00;;;;;;4807853;29;20155;-73
2022/11/08 12:58:54;;;;;;;5.35;1.25;;;16.30;74.90;;;;;;4822391;29;20047;-75
2022/11/08 13:01:22;;;;;;;3.97;0.75;;;16.30;74.90;;;;;;4807981;29;20047;-73
2022/11/08 13:04:17;;;;;;;8.35;1.42;;;16.30;75.00;;;;;;4777307;29;20059;-75
2022/11/08 13:07:02;;;;;;;5.22;1.00;;;16.30;75.20;;;;;;4808172;29;20055;-72
2022/11/08 13:09:46;;;;;;;6.22;1.35;;;16.40;75.10;;;;;;4791706;29;20101;-71
2022/11/08 13:12:39;;;;;;;6.97;1.58;;;16.30;74.90;;;;;;4807915;29;20111;-72
2022/11/08 13:15:15;;;;;;;6.07;1.10;;;16.30;75.00;;;;;;4821610;29;20063;-72
2022/11/08 13:18:00;;;;;;;3.33;1.48;;;16.30;74.90;;;;;;4807865;29;20450;-72
2022/11/08 13:20:45;;;;;;;4.68;1.77;;;16.40;75.00;;;;;;4822357;29;20059;-73
2022/11/08 13:23:14;;;;;;;4.57;1.20;;;16.40;75.10;;;;;;4807998;29;20051;-73
2022/11/08 13:25:42;;;;;;;4.38;1.10;;;16.30;75.10;;;;;;4807446;29;20478;-70
2022/11/08 13:28:36;;;;;;;4.22;1.30;;;16.40;75.30;;;;;;4807470;29;20066;-71
2022/11/08 13:31:21;;;;;;;4.97;1.00;;;16.40;75.10;;;;;;4808117;29;20066;-72
2022/11/08 13:34:07;;;;;;;7.43;1.35;;;16.40;74.90;;;;;;4793662;29;20054;-73
2022/11/08 13:37:11;;;;;;;8.70;1.80;;;16.40;74.70;;;;;;4810595;29;20058;-73
2022/11/08 13:39:40;;;;;;;7.25;1.33;;;16.40;74.60;;;;;;4783028;29;20054;-74
2022/11/08 13:42:14;;;;;;;6.00;1.30;;;16.40;74.60;;;;;;4811316;29;20054;-75
2022/11/08 13:44:56;;;;;;;8.10;1.38;;;16.40;74.80;;;;;;4811246;29;20078;-78
2022/11/08 13:47:31;;;;;;;4.63;1.20;;;16.40;74.90;;;;;;4824269;29;20069;-77
2022/11/08 13:50:27;;;;;;;12.18;1.73;;;16.40;75.00;;;;;;4811248;29;20123;-77
2022/11/08 13:53:18;;;;;;;8.30;1.63;;;16.50;75.10;;;;;;4810978;29;20043;-73
2022/11/08 13:55:48;;;;;;;9.02;1.42;;;16.50;74.60;;;;;;4811051;29;20057;-76
2022/11/08 13:58:40;;;;;;;11.05;2.28;;;16.50;74.30;;;;;;4811148;29;20051;-78
2022/11/08 14:01:21;;;;;;;9.57;1.38;;;16.50;73.70;;;;;;4810398;29;20455;-77
2022/11/08 14:03:47;;;;;;;7.82;1.30;;;16.50;74.20;;;;;;4797181;29;20043;-74
2022/11/08 14:06:49;;;;;;;11.43;2.47;;;16.40;74.60;;;;;;4811474;29;20378;-78
2022/11/08 14:09:50;;;;;;;14.88;5.70;;;16.40;75.20;;;;;;4824770;29;20054;-74
2022/11/08 14:12:30;;;;;;;28.85;6.10;;;16.40;75.40;;;;;;4811094;29;20051;-74
2022/11/08 14:16:24;;;;;;;16.85;8.73;;;16.40;77.00;;;;;;5070496;27;1980848;-78
2022/11/08 14:18:50;;;;;;;;;;;16.30;77.30;;;;;;5113684;28;20135;-77
2022/11/08 14:21:19;;;;;;;18.30;12.23;;;16.30;78.70;;;;;;5095187;28;19966;-77
2022/11/08 14:23:52;;;;;;;19.30;11.35;;;16.30;78.70;;;;;;5112201;28;20358;-77
2022/11/08 14:26:23;;;;;;;23.30;11.50;;;16.20;79.00;;;;;;5112954;28;20350;-77
2022/11/08 14:28:51;;;;;;;14.30;9.18;;;16.20;79.00;;;;;;5112554;28;20342;-79
2022/11/08 14:31:29;;;;;;;17.67;8.82;;;16.20;79.30;;;;;;5064960;28;20122;-78
2022/11/08 14:33:55;;;;;;;20.33;8.75;;;16.20;79.40;;;;;;5075700;28;20428;-72
2022/11/08 14:36:22;;;;;;;15.50;6.63;;;16.20;79.20;;;;;;5112839;28;20489;-76
2022/11/08 14:39:03;;;;;;;17.80;6.82;;;16.20;79.10;;;;;;5111818;28;20051;-73
2022/11/08 14:41:31;;;;;;;16.25;6.57;;;16.20;79.00;;;;;;5112534;28;20044;-72
2022/11/08 14:44:00;;;;;;;17.40;5.70;;;16.20;78.90;;;;;;5094093;28;20119;-72
2022/11/08 14:46:38;;;;;;;10.00;3.65;;;16.20;78.60;;;;;;5092316;28;20185;-74
2022/11/08 14:49:09;;;;;;;12.90;4.45;;;16.20;78.10;;;;;;5092087;28;20044;-74
2022/11/08 14:51:35;;;;;;;13.45;5.03;;;16.30;77.80;;;;;;5092527;28;20040;-75
2022/11/08 14:54:01;;;;;;;8.27;4.30;;;16.30;77.70;;;;;;5092540;28;20059;-74
2022/11/08 14:56:35;;;;;;;10.43;4.70;;;16.30;77.60;;;;;;5091989;28;20111;-75
2022/11/08 14:59:05;;;;;;;10.85;4.32;;;16.20;77.60;;;;;;5091873;28;20209;-75
2022/11/08 15:01:31;;;;;;;7.90;4.03;;;16.20;77.60;;;;;;5092380;28;20232;-75
2022/11/08 15:04:14;;;;;;;9.20;3.97;;;16.20;77.50;;;;;;5074900;28;20075;-74
2022/11/08 15:06:47;;;;;;;9.93;3.55;;;16.20;77.50;;;;;;5112176;28;20051;-76
2022/11/08 15:09:32;;;;;;;9.18;3.25;;;16.20;77.50;;;;;;5112270;28;20048;-76
2022/11/08 15:12:00;;;;;;;8.10;3.53;;;16.20;77.50;;;;;;5111862;28;20051;-74
2022/11/08 15:14:30;;;;;;;10.20;3.60;;;16.20;77.40;;;;;;5111859;28;20043;-74
2022/11/08 15:16:56;;;;;;;14.45;3.67;;;16.20;77.40;;;;;;5112348;28;20055;-75
2022/11/08 15:19:30;;;;;;;8.63;2.65;;;16.20;77.40;;;;;;5111816;28;20047;-75
2022/11/08 15:22:40;;;;;;;8.70;2.92;;;16.20;77.30;;;;;;5111833;28;20053;-74
2022/11/08 15:25:14;;;;;;;9.63;2.88;;;16.20;77.30;;;;;;5009438;28;20057;-74
2022/11/08 15:27:53;;;;;;;9.02;2.63;;;16.20;77.30;;;;;;4982958;28;20078;-75
2022/11/08 15:30:37;;;;;;;10.32;2.25;;;16.20;76.10;;;;;;5038635;28;20060;-74
2022/11/08 15:33:04;;;;;;;7.82;1.85;;;16.20;74.70;;;;;;5077731;28;20048;-72
2022/11/08 15:35:39;;;;;;;6.10;1.55;;;16.20;73.60;;;;;;5077941;28;20045;-72
2022/11/08 15:38:23;;;;;;;5.85;1.42;;;16.20;72.80;;;;;;5077483;28;20482;-74
2022/11/08 15:40:52;;;;;;;9.40;1.50;;;16.10;72.50;;;;;;5089124;28;20084;-76
2022/11/08 15:43:30;;;;;;;7.50;1.70;;;16.10;72.70;;;;;;5083906;28;20117;-73
2022/11/08 15:45:58;;;;;;;4.53;1.50;;;16.00;73.50;;;;;;5052508;28;20051;-75
2022/11/08 15:48:27;;;;;;;6.82;2.00;;;16.00;73.80;;;;;;5077562;28;20437;-74
2022/11/08 15:50:56;;;;;;;7.90;1.98;;;16.10;73.90;;;;;;5084833;28;20115;-78
2022/11/08 15:53:25;;;;;;;10.70;2.53;;;16.10;73.60;;;;;;5079868;28;20131;-78
2022/11/08 15:56:00;;;;;;;6.35;1.70;;;16.10;73.70;;;;;;5062014;28;20096;-75
2022/11/08 15:58:35;;;;;;;10.60;1.90;;;16.10;73.70;;;;;;5079828;28;20039;-74
2022/11/08 16:01:02;;;;;;;8.85;2.05;;;16.10;74.00;;;;;;5078699;28;20059;-76
2022/11/08 16:03:30;;;;;;;12.80;1.92;;;16.20;74.30;;;;;;5097012;28;20052;-73
2022/11/08 16:05:59;;;;;;;12.77;2.28;;;16.20;74.30;;;;;;5080349;28;20078;-76
2022/11/08 16:08:24;;;;;;;12.68;2.63;;;16.20;74.30;;;;;;5043084;28;20060;-75
2022/11/08 16:10:53;;;;;;;9.82;2.03;;;16.20;74.60;;;;;;5042748;28;20128;-77
2022/11/08 16:13:29;;;;;;;10.82;1.95;;;16.20;74.70;;;;;;5076278;28;20044;-73
2022/11/08 16:15:59;;;;;;;15.48;3.15;;;16.30;74.70;;;;;;5075934;28;20344;-78
2022/11/08 16:18:25;;;;;;;9.52;2.10;;;16.30;74.70;;;;;;5076768;28;20123;-76
2022/11/08 16:20:51;;;;;;;6.90;1.55;;;16.30;74.80;;;;;;5076684;28;20083;-77
2022/11/08 16:23:17;;;;;;;8.85;2.00;;;16.30;75.10;;;;;;5076659;28;20052;-77
2022/11/08 16:25:55;;;;;;;14.80;2.22;;;16.30;75.30;;;;;;5066186;28;20036;-77
2022/11/08 16:28:33;;;;;;;12.30;2.47;;;16.30;75.60;;;;;;5096968;28;20366;-76
2022/11/08 16:30:59;;;;;;;15.77;2.95;;;16.30;75.90;;;;;;5097046;28;20047;-76
2022/11/08 16:33:27;;;;;;;13.77;2.55;;;16.30;76.30;;;;;;5097201;28;20366;-76
2022/11/08 16:36:00;;;;;;;12.10;1.73;;;16.30;76.60;;;;;;5061944;28;20055;-77
2022/11/08 16:38:34;;;;;;;13.20;2.10;;;16.30;76.90;;;;;;5095979;28;20044;-76
2022/11/08 16:41:00;;;;;;;10.63;1.30;;;16.30;77.10;;;;;;5062232;28;20065;-77
2022/11/08 16:43:26;;;;;;;15.88;1.92;;;16.30;77.20;;;;;;5078977;28;20124;-76
2022/11/08 16:45:53;;;;;;;12.55;1.70;;;16.30;77.30;;;;;;5078790;28;20059;-77
2022/11/08 16:48:22;;;;;;;13.88;1.38;;;16.30;77.50;;;;;;5079044;28;20091;-76
2022/11/08 16:50:49;;;;;;;8.02;1.35;;;16.40;77.80;;;;;;5078107;28;20043;-76
2022/11/08 16:53:20;;;;;;;8.10;1.10;;;16.30;77.90;;;;;;5062218;28;20055;-76
2022/11/08 16:55:46;;;;;;;15.38;1.45;;;16.40;78.00;;;;;;5096272;28;20110;-76
2022/11/08 16:58:13;;;;;;;7.38;1.00;;;16.40;78.20;;;;;;5096846;28;20054;-75
2022/11/08 17:00:41;;;;;;;6.03;1.90;;;16.40;78.30;;;;;;5078460;28;20059;-72
2022/11/08 17:03:09;;;;;;;5.97;1.65;;;16.40;78.00;;;;;;5095968;28;20105;-70
2022/11/08 17:05:35;;;;;;;8.93;1.88;;;16.40;76.70;;;;;;5096298;28;20374;-73
2022/11/08 17:08:00;;;;;;;6.20;1.73;;;16.40;75.60;;;;;;5097093;28;20052;-73
2022/11/08 17:10:29;;;;;;;6.57;2.00;;;16.40;74.70;;;;;;5078589;28;20423;-72
2022/11/08 17:12:55;;;;;;;7.90;1.38;;;16.30;74.20;;;;;;5095920;28;20048;-73
2022/11/08 17:15:27;;;;;;;6.63;1.80;;;16.30;73.80;;;;;;5072157;28;20087;-77
2022/11/08 17:17:57;;;;;;;12.30;2.28;;;16.30;73.70;;;;;;5075710;28;20061;-79
2022/11/08 17:20:29;;;;;;;12.60;2.35;;;16.30;73.70;;;;;;5075650;28;20044;-79
2022/11/08 17:22:54;;;;;;;10.50;1.65;;;16.30;74.00;;;;;;5074919;28;20032;-76
2022/11/08 17:25:22;;;;;;;10.02;2.00;;;16.30;74.30;;;;;;5095669;28;20069;-78
2022/11/08 17:27:49;;;;;;;15.57;2.50;;;16.30;74.50;;;;;;5061102;28;20477;-78
2022/11/08 17:30:16;;;;;;;8.82;1.50;;;16.20;74.70;;;;;;5095681;28;20078;-79
2022/11/08 17:32:42;;;;;;;10.63;1.92;;;16.20;74.80;;;;;;5077932;28;20090;-78
2022/11/08 17:35:10;;;;;;;24.05;2.70;;;16.20;75.00;;;;;;5095911;28;20044;-79
2022/11/08 17:37:35;;;;;;;11.15;2.10;;;16.20;75.80;;;;;;5077842;28;20512;-78
2022/11/08 17:40:03;;;;;;;10.45;2.25;;;16.20;75.40;;;;;;5095127;28;20082;-78
2022/11/08 17:42:29;;;;;;;15.23;2.00;;;16.20;75.70;;;;;;5077676;28;20044;-77
2022/11/08 17:44:56;;;;;;;8.98;1.67;;;16.20;76.10;;;;;;5094838;28;20048;-77
2022/11/08 17:47:26;;;;;;;19.80;2.08;;;16.20;76.20;;;;;;5095950;28;20097;-76
2022/11/08 17:49:52;;;;;;;13.18;1.60;;;16.20;76.30;;;;;;5095426;28;20090;-78
2022/11/08 17:52:19;;;;;;;13.18;2.08;;;16.20;76.20;;;;;;5095548;28;20055;-77
2022/11/08 17:54:45;;;;;;;11.60;2.50;;;16.20;76.10;;;;;;5095233;28;20040;-78
2022/11/08 17:57:12;;;;;;;10.07;1.90;;;16.20;76.10;;;;;;5077941;28;20446;-77
2022/11/08 17:59:38;;;;;;;6.88;2.00;;;16.20;76.00;;;;;;5095270;28;20180;-78
2022/11/08 18:02:04;;;;;;;6.90;1.85;;;16.20;76.10;;;;;;5085943;28;20040;-78
2022/11/08 18:04:30;;;;;;;15.63;1.85;;;16.20;76.10;;;;;;5075082;28;20054;-78
2022/11/08 18:06:56;;;;;;;6.88;1.25;;;16.20;76.20;;;;;;5074963;28;20319;-78
2022/11/08 18:09:22;;;;;;;7.35;2.53;;;16.20;76.20;;;;;;5074779;28;20101;-77
2022/11/08 18:11:47;;;;;;;10.77;1.60;;;16.20;76.30;;;;;;5074720;28;20069;-72
2022/11/08 18:14:25;;;;;;;6.05;1.33;;;16.30;76.20;;;;;;5079758;28;20071;-74
2022/11/08 18:16:51;;;;;;;3.83;1.52;;;16.30;76.10;;;;;;5040724;28;20160;-75
2022/11/08 18:19:20;;;;;;;5.80;1.35;;;16.30;76.20;;;;;;5036194;28;20108;-78
2022/11/08 18:21:46;;;;;;;10.80;1.50;;;16.30;76.20;;;;;;5049219;28;20037;-77
2022/11/08 18:24:12;;;;;;;8.77;1.40;;;16.20;76.30;;;;;;5055369;28;20052;-79
2022/11/08 18:26:39;;;;;;;5.70;1.30;;;16.30;76.60;;;;;;5055052;28;20456;-77
2022/11/08 18:29:08;;;;;;;8.60;2.10;;;16.20;76.90;;;;;;5053720;28;20052;-81
2022/11/08 18:31:37;;;;;;;9.95;1.45;;;16.20;77.00;;;;;;5052863;28;20107;-76
2022/11/08 18:34:03;;;;;;;5.43;1.30;;;16.20;77.30;;;;;;5034883;28;20041;-78
2022/11/08 18:36:29;;;;;;;8.93;1.40;;;16.20;77.50;;;;;;5017971;28;20114;-77
2022/11/08 18:39:01;;;;;;;5.68;1.45;;;16.20;78.00;;;;;;5033990;28;20096;-77
2022/11/08 18:41:30;;;;;;;6.28;1.67;;;16.20;78.20;;;;;;5034928;28;20041;-72
2022/11/08 18:43:57;;;;;;;6.25;1.58;;;16.20;78.50;;;;;;5034829;28;20041;-72
2022/11/08 18:46:25;;;;;;;7.25;1.88;;;16.20;78.10;;;;;;5049096;28;20045;-73
2022/11/08 18:48:51;;;;;;;10.13;1.77;;;16.30;78.20;;;;;;5046240;28;20041;-75
2022/11/08 18:51:19;;;;;;;5.15;1.35;;;16.30;78.30;;;;;;5053097;28;20121;-73
2022/11/08 18:53:44;;;;;;;6.32;1.15;;;16.30;78.40;;;;;;5054065;28;20052;-72
2022/11/08 18:56:11;;;;;;;7.18;1.45;;;16.30;78.30;;;;;;5054419;28;20049;-72
2022/11/08 18:58:37;;;;;;;5.70;1.20;;;16.30;78.20;;;;;;5054852;28;20041;-73
2022/11/08 19:01:04;;;;;;;6.20;1.73;;;16.30;78.00;;;;;;5042897;28;20045;-73
2022/11/08 19:03:29;;;;;;;5.22;1.23;;;16.30;78.00;;;;;;5058015;28;20439;-71
2022/11/08 19:05:56;;;;;;;6.07;1.75;;;16.30;78.10;;;;;;5057190;28;20048;-73
2022/11/08 19:08:24;;;;;;;4.65;1.10;;;16.30;78.20;;;;;;5057173;28;20085;-72
2022/11/08 19:10:52;;;;;;;7.35;1.20;;;16.30;78.30;;;;;;5058974;28;20045;-75
2022/11/08 19:13:22;;;;;;;4.05;1.17;;;16.30;78.40;;;;;;5058424;28;20045;-73